createdAt,value
2018-04-16T00:02:03.829Z,19.40
2018-04-16T00:06:59.454Z,19.60
2018-04-16T00:09:26.854Z,19.90
2018-04-16T00:14:22.561Z,19.30
2018-04-16T00:21:48.057Z,18.80
2018-04-16T00:24:15.399Z,18.80
2018-04-16T00:26:42.762Z,18.80
2018-04-16T00:31:45.595Z,18.80
2018-04-16T00:36:53.565Z,18.70
2018-04-16T00:39:27.874Z,18.60
2018-04-16T00:42:02.353Z,18.30
2018-04-16T00:47:11.189Z,18.50
2018-04-16T00:49:44.726Z,18.10
2018-04-16T00:52:19.162Z,18.00
2018-04-16T00:54:52.747Z,18.10
2018-04-16T00:57:26.294Z,17.80
2018-04-16T01:02:35.550Z,17.40
2018-04-16T01:05:09.070Z,17.30
2018-04-16T01:10:16.996Z,17.40
2018-04-16T01:12:50.499Z,17.90
2018-04-16T01:15:24.771Z,18.30
2018-04-16T01:17:58.230Z,18.40
2018-04-16T01:20:31.770Z,18.30
2018-04-16T01:23:05.197Z,18.70
2018-04-16T01:25:39.439Z,18.40
2018-04-16T01:30:48.069Z,19.40
2018-04-16T01:33:21.634Z,19.70
2018-04-16T01:35:55.542Z,19.60
2018-04-16T01:41:04.370Z,18.80
2018-04-16T01:43:37.806Z,19.00
2018-04-16T01:46:11.110Z,19.00
2018-04-16T01:51:19.194Z,18.40
2018-04-16T01:53:52.598Z,18.40
2018-04-16T01:56:27.542Z,18.30
2018-04-16T02:01:35.178Z,18.30
2018-04-16T02:04:08.739Z,18.20
2018-04-16T02:06:42.131Z,18.40
2018-04-16T02:09:16.323Z,18.30
2018-04-16T02:11:50.544Z,18.20
2018-04-16T02:14:23.975Z,18.10
2018-04-16T02:16:58.273Z,17.90
2018-04-16T02:19:31.759Z,17.80
2018-04-16T02:22:05.224Z,17.70
2018-04-16T02:24:38.545Z,17.60
2018-04-16T02:27:12.081Z,17.60
2018-04-16T02:29:46.370Z,17.70
2018-04-16T02:32:20.548Z,17.90
2018-04-16T02:34:54.091Z,18.60
2018-04-16T02:37:28.418Z,18.70
2018-04-16T02:40:01.824Z,18.80
2018-04-16T02:45:10.446Z,19.20
2018-04-16T02:47:43.997Z,19.50
2018-04-16T02:50:17.328Z,19.80
2018-04-16T02:55:25.467Z,21.00
2018-04-16T03:00:33.308Z,21.20
2018-04-16T03:03:07.570Z,21.10
2018-04-16T03:05:41.226Z,21.50
2018-04-16T03:10:49.967Z,21.50
2018-04-16T03:15:57.762Z,21.00
2018-04-16T03:21:05.747Z,21.80
2018-04-16T03:29:14.899Z,19.90
2018-04-16T03:31:48.446Z,19.20
2018-04-16T03:34:23.127Z,19.80
2018-04-16T03:36:57.004Z,20.90
2018-04-16T03:39:31.362Z,21.40
2018-04-16T03:42:05.011Z,21.70
2018-04-16T03:50:15.662Z,22.20
2018-04-16T03:52:49.373Z,22.10
2018-04-16T03:55:22.926Z,21.70
2018-04-16T03:57:51.335Z,20.80
2018-04-16T04:00:18.680Z,21.20
2018-04-16T04:02:46.035Z,21.50
2018-04-16T04:05:13.383Z,21.70
2018-04-16T04:07:41.482Z,21.70
2018-04-16T04:12:37.921Z,20.60
2018-04-16T04:15:05.642Z,20.10
2018-04-16T04:17:33.729Z,19.70
2018-04-16T04:20:01.871Z,19.90
2018-04-16T04:22:42.448Z,20.10
2018-04-16T04:25:22.837Z,19.80
2018-04-16T04:28:02.712Z,20.00
2018-04-16T04:30:31.700Z,20.50
2018-04-16T04:32:59.045Z,20.30
2018-04-16T04:35:27.267Z,19.80
2018-04-16T04:40:22.882Z,18.50
2018-04-16T04:42:50.219Z,17.80
2018-04-16T04:45:17.636Z,17.20
2018-04-16T04:47:45.003Z,17.00
2018-04-16T04:50:12.365Z,16.90
2018-04-16T04:52:40.629Z,16.40
2018-04-16T04:55:08.172Z,16.20
2018-04-16T04:57:35.575Z,16.10
2018-04-16T05:00:02.925Z,16.00
2018-04-16T05:04:59.344Z,16.00
2018-04-16T05:07:27.151Z,16.00
2018-04-16T05:09:54.534Z,16.20
2018-04-16T05:12:22.603Z,16.90
2018-04-16T05:17:18.543Z,18.60
2018-04-16T05:19:46.661Z,18.30
2018-04-16T05:22:14.246Z,18.60
2018-04-16T05:24:41.821Z,19.40
2018-04-16T05:27:09.939Z,20.10
2018-04-16T05:29:37.259Z,20.60
2018-04-16T05:32:04.641Z,20.90
2018-04-16T05:34:33.094Z,20.50
2018-04-16T05:37:01.387Z,19.90
2018-04-16T05:39:28.795Z,19.90
2018-04-16T05:44:24.478Z,19.00
2018-04-16T05:49:20.184Z,17.90
2018-04-16T05:51:48.247Z,17.90
2018-04-16T05:54:15.883Z,17.90
2018-04-16T05:56:43.337Z,17.40
2018-04-16T05:59:10.707Z,17.00
2018-04-16T06:04:06.376Z,16.90
2018-04-16T06:06:34.448Z,17.10
2018-04-16T06:09:01.939Z,18.50
2018-04-16T06:11:30.084Z,19.80
2018-04-16T06:13:57.735Z,20.40
2018-04-16T06:16:25.814Z,20.80
2018-04-16T06:21:21.502Z,19.90
2018-04-16T06:26:17.195Z,20.10
2018-04-16T06:28:45.293Z,20.00
2018-04-16T06:31:12.802Z,19.60
2018-04-16T06:36:08.699Z,20.20
2018-04-16T06:38:36.503Z,20.80
2018-04-16T06:41:03.846Z,20.60
2018-04-16T06:43:31.940Z,20.60
2018-04-16T06:46:00.050Z,20.60
2018-04-16T06:55:52.931Z,20.30
2018-04-16T06:58:20.285Z,20.00
2018-04-16T07:00:48.373Z,20.10
2018-04-16T07:03:15.740Z,20.30
2018-04-16T07:05:43.876Z,20.30
2018-04-16T07:08:11.281Z,20.90
2018-04-16T07:13:07.668Z,21.70
2018-04-16T07:15:35.067Z,21.70
2018-04-16T07:18:03.188Z,21.60
2018-04-16T07:22:59.608Z,20.90
2018-04-16T07:25:27.010Z,21.10
2018-04-16T07:27:54.639Z,21.60
2018-04-16T07:30:21.983Z,21.80
2018-04-16T07:32:50.074Z,21.50
2018-04-16T07:35:17.405Z,21.50
2018-04-16T07:37:45.510Z,22.10
2018-04-16T07:40:12.886Z,22.60
2018-04-16T07:42:40.330Z,22.90
2018-04-16T07:45:08.615Z,22.90
2018-04-16T07:47:35.986Z,22.90
2018-04-16T07:50:04.148Z,22.90
2018-04-16T07:52:31.555Z,22.30
2018-04-16T07:54:59.623Z,22.40
2018-04-16T07:57:27.687Z,22.70
2018-04-16T07:59:55.785Z,23.00
2018-04-16T08:02:23.150Z,23.10
2018-04-16T08:04:50.578Z,23.50
2018-04-16T08:09:46.469Z,24.40
2018-04-16T08:12:13.794Z,25.10
2018-04-16T08:14:41.882Z,25.50
2018-04-16T08:17:09.398Z,25.80
2018-04-16T08:19:37.511Z,26.00
2018-04-16T08:22:04.866Z,26.10
2018-04-16T08:27:00.556Z,26.40
2018-04-16T08:29:27.902Z,26.40
2018-04-16T08:34:23.535Z,26.40
2018-04-16T08:36:50.869Z,26.50
2018-04-16T08:39:18.209Z,26.50
2018-04-16T08:41:45.883Z,26.40
2018-04-16T08:44:13.334Z,26.30
2018-04-16T08:49:09.707Z,27.00
2018-04-16T08:54:06.492Z,27.30
2018-04-16T08:56:34.639Z,27.50
2018-04-16T09:01:31.298Z,27.20
2018-04-16T09:03:58.718Z,27.20
2018-04-16T09:06:26.064Z,27.20
2018-04-16T09:11:21.747Z,27.30
2018-04-16T09:13:49.126Z,27.40
2018-04-16T09:16:17.219Z,27.50
2018-04-16T09:18:44.777Z,27.30
2018-04-16T09:21:12.878Z,26.60
2018-04-16T09:26:09.250Z,27.60
2018-04-16T09:28:37.475Z,28.30
2018-04-16T09:31:05.074Z,28.50
2018-04-16T09:33:33.158Z,28.50
2018-04-16T09:36:00.561Z,28.60
2018-04-16T09:38:28.602Z,28.60
2018-04-16T09:40:56.861Z,28.60
2018-04-16T09:43:25.085Z,28.60
2018-04-16T09:45:52.889Z,28.20
2018-04-16T09:48:21.017Z,27.80
2018-04-16T09:50:48.370Z,27.40
2018-04-16T10:00:46.773Z,25.40
2018-04-16T10:05:44.843Z,25.50
2018-04-16T10:08:12.187Z,25.70
2018-04-16T10:13:08.193Z,26.30
2018-04-16T10:18:04.164Z,30.90
2018-04-16T10:25:28.258Z,33.90
2018-04-16T10:27:56.324Z,33.90
2018-04-16T10:30:24.418Z,34.30
2018-04-16T10:35:20.402Z,35.80
2018-04-16T10:37:47.731Z,35.80
2018-04-16T10:40:15.802Z,35.20
2018-04-16T10:42:44.610Z,33.60
2018-04-16T10:45:12.009Z,31.40
2018-04-16T10:47:40.085Z,30.60
2018-04-16T10:50:07.765Z,32.20
2018-04-16T10:52:35.111Z,33.00
2018-04-16T10:55:03.194Z,33.50
2018-04-16T10:59:58.827Z,31.80
2018-04-16T11:02:26.174Z,30.20
2018-04-16T11:04:53.506Z,28.90
2018-04-16T11:07:21.607Z,29.70
2018-04-16T11:09:49.749Z,30.30
2018-04-16T11:14:46.407Z,32.10
2018-04-16T11:17:14.586Z,32.40
2018-04-16T11:22:10.242Z,31.90
2018-04-16T11:24:37.699Z,32.80
2018-04-16T11:27:05.088Z,32.50
2018-04-16T11:29:32.435Z,30.40
2018-04-16T11:32:00.199Z,28.90
2018-04-16T11:34:27.502Z,28.00
2018-04-16T11:39:23.866Z,27.20
2018-04-16T11:41:51.533Z,27.20
2018-04-16T11:44:19.813Z,27.20
2018-04-16T11:46:47.251Z,27.20
2018-04-16T11:49:15.362Z,27.10
2018-04-16T11:51:43.679Z,27.20
2018-04-16T11:54:11.182Z,27.20
2018-04-16T11:56:38.535Z,27.20
2018-04-16T11:59:05.910Z,27.00
2018-04-16T12:01:33.275Z,26.50
2018-04-16T12:04:00.668Z,26.40
2018-04-16T12:06:28.261Z,26.60
2018-04-16T12:08:55.623Z,26.60
2018-04-16T12:11:22.984Z,26.40
2018-04-16T12:13:50.366Z,25.90
2018-04-16T12:16:18.515Z,25.80
2018-04-16T12:18:45.876Z,26.10
2018-04-16T12:21:13.223Z,26.20
2018-04-16T12:23:40.584Z,26.10
2018-04-16T12:26:07.923Z,25.70
2018-04-16T12:28:35.306Z,25.90
2018-04-16T12:31:02.677Z,26.10
2018-04-16T12:33:30.047Z,26.10
2018-04-16T12:38:25.716Z,25.10
2018-04-16T12:40:53.126Z,24.70
2018-04-16T12:43:20.502Z,25.10
2018-04-16T12:45:47.878Z,25.40
2018-04-16T12:48:15.254Z,25.50
2018-04-16T12:53:11.148Z,25.70
2018-04-16T12:55:38.674Z,25.70
2018-04-16T12:58:07.169Z,25.70
2018-04-16T13:00:34.566Z,25.30
2018-04-16T13:03:01.936Z,24.90
2018-04-16T13:10:26.063Z,25.30
2018-04-16T13:15:22.638Z,25.30
2018-04-16T13:17:50.785Z,25.40
2018-04-16T13:22:46.473Z,25.50
2018-04-16T13:27:42.128Z,25.70
2018-04-16T13:30:10.218Z,25.70
2018-04-16T13:32:38.039Z,25.80
2018-04-16T13:35:05.493Z,25.90
2018-04-16T13:37:33.611Z,25.90
2018-04-16T13:40:01.428Z,25.90
2018-04-16T13:44:57.090Z,26.00
2018-04-16T13:47:24.427Z,26.00
2018-04-16T13:49:51.794Z,25.90
2018-04-16T13:52:19.152Z,25.90
2018-04-16T13:54:46.738Z,25.90
2018-04-16T13:57:14.074Z,26.00
2018-04-16T14:02:09.811Z,26.20
2018-04-16T14:09:34.556Z,26.30
2018-04-16T14:12:02.705Z,26.30
2018-04-16T14:14:30.651Z,26.30
2018-04-16T14:19:26.426Z,25.90
2018-04-16T14:24:23.619Z,26.50
2018-04-16T14:26:51.709Z,26.90
2018-04-16T14:29:19.091Z,27.60
2018-04-16T14:31:46.411Z,28.40
2018-04-16T14:34:14.713Z,28.90
2018-04-16T14:39:11.010Z,29.20
2018-04-16T14:41:38.370Z,28.80
2018-04-16T14:44:06.505Z,28.20
2018-04-16T14:46:34.664Z,27.70
2018-04-16T14:49:02.123Z,27.40
2018-04-16T14:53:57.928Z,26.80
2018-04-16T14:58:54.918Z,26.60
2018-04-16T15:01:22.199Z,26.40
2018-04-16T15:03:49.551Z,26.30
2018-04-16T15:06:16.984Z,26.40
2018-04-16T15:08:44.339Z,26.40
2018-04-16T15:11:11.740Z,26.50
2018-04-16T15:13:39.107Z,26.60
2018-04-16T15:16:06.468Z,26.70
2018-04-16T15:18:33.804Z,26.70
2018-04-16T15:21:01.200Z,26.70
2018-04-16T15:23:28.635Z,26.70
2018-04-16T15:25:56.075Z,26.80
2018-04-16T15:28:24.031Z,26.80
2018-04-16T15:30:51.683Z,26.90
2018-04-16T15:33:19.776Z,26.80
2018-04-16T15:35:47.145Z,26.80
2018-04-16T15:38:14.530Z,26.80
2018-04-16T15:40:42.079Z,26.70
2018-04-16T15:43:09.492Z,26.70
2018-04-16T15:45:37.915Z,26.50
2018-04-16T15:48:05.335Z,26.40
2018-04-16T15:50:32.696Z,26.40
2018-04-16T15:53:00.359Z,26.40
2018-04-16T15:55:27.889Z,26.30
2018-04-16T15:57:55.320Z,26.20
2018-04-16T16:00:23.351Z,26.00
2018-04-16T16:02:50.666Z,25.90
2018-04-16T16:05:18.699Z,25.90
2018-04-16T16:10:26.543Z,25.80
2018-04-16T16:12:53.966Z,25.80
2018-04-16T16:15:21.678Z,25.80
2018-04-16T16:17:48.964Z,25.80
2018-04-16T16:20:16.242Z,25.80
2018-04-16T16:22:43.531Z,25.80
2018-04-16T16:25:11.530Z,25.90
2018-04-16T16:27:47.447Z,26.00
2018-04-16T16:30:16.734Z,26.00
2018-04-16T16:32:44.050Z,26.00
2018-04-16T16:35:13.342Z,26.00
2018-04-16T16:37:40.811Z,26.10
2018-04-16T16:40:16.214Z,26.10
2018-04-16T16:42:43.596Z,26.10
2018-04-16T16:45:11.199Z,26.10
2018-04-16T16:47:44.665Z,26.10
2018-04-16T16:50:15.907Z,26.10
2018-04-16T16:52:44.966Z,26.10
2018-04-16T16:55:18.714Z,26.00
2018-04-16T16:57:46.238Z,26.00
2018-04-16T17:00:13.490Z,26.00
2018-04-16T17:02:40.919Z,25.90
2018-04-16T17:05:08.480Z,25.90
2018-04-16T17:07:36.820Z,25.90
2018-04-16T17:10:06.015Z,25.90
2018-04-16T17:12:33.431Z,25.80
2018-04-16T17:15:00.751Z,25.70
2018-04-16T17:17:28.143Z,25.60
2018-04-16T17:19:55.525Z,25.40
2018-04-16T17:22:22.944Z,25.30
2018-04-16T17:24:54.738Z,25.20
2018-04-16T17:27:23.021Z,25.00
2018-04-16T17:29:50.510Z,24.90
2018-04-16T17:32:18.922Z,25.00
2018-04-16T17:34:46.189Z,25.10
2018-04-16T17:37:13.492Z,25.10
2018-04-16T17:39:41.165Z,25.10
2018-04-16T17:42:08.505Z,25.20
2018-04-16T17:44:36.553Z,25.00
2018-04-16T17:47:03.840Z,24.90
2018-04-16T17:49:31.987Z,25.00
2018-04-16T17:51:59.559Z,24.80
2018-04-16T17:54:26.899Z,24.60
2018-04-16T17:57:00.600Z,24.30
2018-04-16T17:59:32.098Z,24.00
2018-04-16T18:01:59.416Z,23.90
2018-04-16T18:04:27.467Z,23.90
2018-04-16T18:06:54.780Z,24.10
2018-04-16T18:09:22.411Z,24.30
2018-04-16T18:11:50.615Z,24.40
2018-04-16T18:14:17.901Z,24.50
2018-04-16T18:16:45.223Z,24.70
2018-04-16T18:19:18.015Z,24.80
2018-04-16T18:21:45.378Z,24.80
2018-04-16T18:24:14.111Z,24.80
2018-04-16T18:26:42.464Z,24.80
2018-04-16T18:29:09.878Z,24.80
2018-04-16T18:31:37.311Z,24.90
2018-04-16T18:34:05.376Z,24.80
2018-04-16T18:36:33.400Z,24.80
2018-04-16T18:39:00.776Z,24.80
2018-04-16T18:41:28.150Z,24.80
2018-04-16T18:43:56.232Z,24.80
2018-04-16T18:46:23.743Z,24.80
2018-04-16T18:48:51.109Z,24.60
2018-04-16T18:51:18.437Z,24.50
2018-04-16T18:53:48.594Z,24.40
2018-04-16T18:56:15.942Z,24.50
2018-04-16T18:58:43.367Z,24.40
2018-04-16T19:01:10.827Z,24.30
2018-04-16T19:03:39.984Z,24.40
2018-04-16T19:06:09.229Z,24.40
2018-04-16T19:08:37.788Z,24.40
2018-04-16T19:11:06.303Z,24.40
2018-04-16T19:13:33.773Z,24.30
2018-04-16T19:16:01.272Z,24.20
2018-04-16T19:18:28.519Z,24.20
2018-04-16T19:21:01.710Z,24.20
2018-04-16T19:23:29.874Z,24.10
2018-04-16T19:25:57.261Z,23.90
2018-04-16T19:28:24.512Z,23.80
2018-04-16T19:30:51.845Z,23.80
2018-04-16T19:33:25.276Z,23.80
2018-04-16T19:35:52.726Z,23.80
2018-04-16T19:38:20.007Z,23.80
2018-04-16T19:40:47.347Z,23.70
2018-04-16T19:43:14.803Z,23.70
2018-04-16T19:45:42.113Z,23.70
2018-04-16T19:48:09.535Z,23.70
2018-04-16T19:50:38.756Z,23.70
2018-04-16T19:53:06.847Z,23.50
2018-04-16T19:55:40.158Z,23.50
2018-04-16T19:58:13.629Z,23.50
2018-04-16T20:00:40.957Z,23.40
2018-04-16T20:03:15.270Z,23.40
2018-04-16T20:05:42.754Z,23.40
2018-04-16T20:08:10.051Z,23.40
2018-04-16T20:10:37.705Z,23.30
2018-04-16T20:13:05.173Z,23.10
2018-04-16T20:15:32.507Z,22.80
2018-04-16T20:17:59.827Z,22.30
2018-04-16T20:20:27.850Z,22.20
2018-04-16T20:22:55.271Z,22.00
2018-04-16T20:25:22.729Z,22.30
2018-04-16T20:27:50.195Z,22.50
2018-04-16T20:30:17.548Z,22.70
2018-04-16T20:32:44.887Z,22.80
2018-04-16T20:35:12.249Z,22.80
2018-04-16T20:37:39.649Z,22.80
2018-04-16T20:42:35.945Z,22.80
2018-04-16T20:45:03.752Z,22.90
2018-04-16T20:47:31.124Z,22.80
2018-04-16T20:49:59.198Z,22.80
2018-04-16T20:52:27.307Z,22.70
2018-04-16T20:54:54.607Z,22.50
2018-04-16T20:57:21.908Z,22.60
2018-04-16T20:59:49.195Z,22.60
2018-04-16T21:02:16.464Z,22.70
2018-04-16T21:04:43.877Z,22.70
2018-04-16T21:07:11.201Z,22.80
2018-04-16T21:09:39.274Z,23.00
2018-04-16T21:12:07.281Z,22.70
2018-04-16T21:14:34.603Z,22.80
2018-04-16T21:17:02.615Z,22.50
2018-04-16T21:19:29.965Z,22.70
2018-04-16T21:21:57.263Z,22.70
2018-04-16T21:24:24.617Z,22.90
2018-04-16T21:26:51.921Z,22.60
2018-04-16T21:29:19.359Z,22.50
2018-04-16T21:31:46.778Z,22.30
2018-04-16T21:34:14.074Z,22.20
2018-04-16T21:36:41.348Z,22.30
2018-04-16T21:39:09.006Z,22.30
2018-04-16T21:41:36.282Z,22.40
2018-04-16T21:44:04.336Z,22.50
2018-04-16T21:46:31.666Z,22.60
2018-04-16T21:48:58.944Z,22.60
2018-04-16T21:51:26.255Z,22.70
2018-04-16T21:53:53.716Z,22.70
2018-04-16T21:56:21.067Z,22.70
2018-04-16T21:58:49.093Z,22.70
2018-04-16T22:01:17.251Z,22.70
2018-04-16T22:03:44.501Z,22.50
2018-04-16T22:06:11.806Z,22.30
2018-04-16T22:08:39.484Z,22.30
2018-04-16T22:11:07.835Z,22.30
2018-04-16T22:13:35.844Z,22.40
2018-04-16T22:16:03.173Z,22.30
2018-04-16T22:18:31.183Z,22.30
2018-04-16T22:20:59.218Z,22.40
2018-04-16T22:23:26.481Z,22.30
2018-04-16T22:25:53.797Z,22.30
2018-04-16T22:28:21.252Z,22.10
2018-04-16T22:30:48.717Z,22.00
2018-04-16T22:33:16.708Z,22.10
2018-04-16T22:35:44.268Z,22.00
2018-04-16T22:38:12.317Z,21.90
2018-04-16T22:40:40.283Z,21.20
2018-04-16T22:43:08.543Z,21.00
2018-04-16T22:45:35.795Z,20.90
2018-04-16T22:50:31.480Z,20.80
2018-04-16T22:55:27.050Z,20.80
2018-04-16T23:00:22.519Z,20.00
2018-04-16T23:07:46.474Z,19.70
2018-04-16T23:10:14.591Z,19.60
2018-04-16T23:12:42.825Z,19.20
2018-04-16T23:15:10.186Z,19.00
2018-04-16T23:17:38.267Z,18.80
2018-04-16T23:20:05.923Z,18.60
2018-04-16T23:25:02.575Z,17.80
2018-04-16T23:27:30.646Z,17.60
2018-04-16T23:29:58.037Z,17.50
2018-04-16T23:32:26.286Z,17.40
2018-04-16T23:37:22.731Z,19.10
2018-04-16T23:39:50.123Z,19.70
2018-04-16T23:42:18.220Z,19.60
2018-04-16T23:44:46.282Z,19.70
2018-04-16T23:47:13.622Z,20.10
2018-04-16T23:49:41.754Z,20.10
2018-04-16T23:52:09.098Z,20.00
2018-04-16T23:54:36.455Z,20.00
2018-04-16T23:57:03.803Z,19.90
